JLY7948 SBMO-SBKP
Flight info
| Callsign | JLY7948 |
|---|---|
| Flight time | 2h 39m |
| Altitude | 38000 |
| Route | OBLAX DCT ARNOX UZ30 ENTIT |
| Aircraft | A319/M-SDE3FGHIRWY/LB1 |
Departure
| Time | 2026-04-15 13:01 |
|---|---|
| Airport | Zumbi dos Palmares International Airport (SBMO) |
Arrival
| Time | 2026-04-15 15:40 |
|---|---|
| Airport | Viracopos International Airport (SBKP) |
| Time | Latitude | Longitude | Altitude | Speed | Heading |
|---|---|---|---|---|---|
| 2026-04-15 12:40 | -9.51372 | -35.79468 | 391 ft | 0 kts | 191° |
| 2026-04-15 12:48 | -9.51366 | -35.79467 | 391 ft | 2 kts | 194° |
| 2026-04-15 12:48 | -9.51353 | -35.79462 | 392 ft | 1 kts | 205° |
| 2026-04-15 12:48 | -9.51345 | -35.79458 | 391 ft | 2 kts | 210° |
| 2026-04-15 12:48 | -9.51340 | -35.79455 | 391 ft | 2 kts | 214° |
| 2026-04-15 12:49 | -9.51328 | -35.79446 | 391 ft | 2 kts | 224° |
| 2026-04-15 12:49 | -9.51324 | -35.79442 | 391 ft | 2 kts | 228° |
| 2026-04-15 12:49 | -9.51314 | -35.79429 | 391 ft | 2 kts | 238° |
| 2026-04-15 12:49 | -9.51307 | -35.79415 | 391 ft | 2 kts | 248° |
| 2026-04-15 12:50 | -9.51303 | -35.79402 | 391 ft | 2 kts | 257° |
| 2026-04-15 12:50 | -9.51300 | -35.79387 | 391 ft | 2 kts | 266° |
| 2026-04-15 12:50 | -9.51300 | -35.79372 | 391 ft | 2 kts | 276° |
| 2026-04-15 12:50 | -9.51303 | -35.79357 | 391 ft | 1 kts | 281° |
| 2026-04-15 12:51 | -9.51304 | -35.79354 | 391 ft | 0 kts | 279° |
| 2026-04-15 12:54 | -9.51304 | -35.79355 | 391 ft | 0 kts | 279° |
| 2026-04-15 12:54 | -9.51303 | -35.79360 | 391 ft | 1 kts | 279° |
| 2026-04-15 12:54 | -9.51301 | -35.79372 | 391 ft | 2 kts | 279° |
| 2026-04-15 12:55 | -9.51297 | -35.79390 | 391 ft | 3 kts | 279° |
| 2026-04-15 12:55 | -9.51285 | -35.79411 | 391 ft | 3 kts | 322° |
| 2026-04-15 12:55 | -9.51257 | -35.79424 | 391 ft | 4 kts | 340° |
| 2026-04-15 12:55 | -9.51214 | -35.79440 | 391 ft | 7 kts | 330° |
| 2026-04-15 12:56 | -9.51186 | -35.79486 | 392 ft | 8 kts | 282° |
| 2026-04-15 12:56 | -9.51173 | -35.79543 | 392 ft | 8 kts | 283° |
| 2026-04-15 12:56 | -9.51160 | -35.79603 | 393 ft | 9 kts | 281° |
| 2026-04-15 12:56 | -9.51145 | -35.79694 | 393 ft | 17 kts | 279° |
| 2026-04-15 12:57 | -9.51122 | -35.79828 | 394 ft | 19 kts | 280° |
| 2026-04-15 12:57 | -9.51098 | -35.79956 | 395 ft | 18 kts | 281° |
| 2026-04-15 12:57 | -9.51072 | -35.80083 | 395 ft | 17 kts | 281° |
| 2026-04-15 12:57 | -9.51048 | -35.80204 | 396 ft | 15 kts | 280° |
| 2026-04-15 12:58 | -9.51030 | -35.80309 | 397 ft | 13 kts | 292° |
| 2026-04-15 12:58 | -9.50982 | -35.80337 | 397 ft | 0 kts | 359° |
| 2026-04-15 12:59 | -9.50935 | -35.80328 | 397 ft | 5 kts | 8° |
| 2026-04-15 12:59 | -9.50891 | -35.80320 | 397 ft | 6 kts | 21° |
| 2026-04-15 12:59 | -9.50866 | -35.80284 | 397 ft | 7 kts | 98° |
| 2026-04-15 13:00 | -9.50886 | -35.80219 | 397 ft | 24 kts | 102° |
| 2026-04-15 13:00 | -9.50960 | -35.79816 | 394 ft | 91 kts | 101° |
| 2026-04-15 13:00 | -9.51117 | -35.78976 | 388 ft | 148 kts | 101° |
| 2026-04-15 13:00 | -9.51328 | -35.77838 | 575 ft | 175 kts | 101° |
| 2026-04-15 13:01 | -9.51590 | -35.76623 | 1092 ft | 182 kts | 103° |
| 2026-04-15 13:01 | -9.51855 | -35.75405 | 1791 ft | 174 kts | 101° |
| 2026-04-15 13:01 | -9.52181 | -35.74279 | 2373 ft | 172 kts | 122° |
| 2026-04-15 13:01 | -9.53160 | -35.73538 | 2671 ft | 191 kts | 160° |
| 2026-04-15 13:02 | -9.54493 | -35.73484 | 2918 ft | 218 kts | 194° |
| 2026-04-15 13:02 | -9.55744 | -35.74274 | 3253 ft | 242 kts | 230° |
| 2026-04-15 13:02 | -9.56428 | -35.75865 | 3680 ft | 262 kts | 257° |
| 2026-04-15 13:02 | -9.56748 | -35.77689 | 4157 ft | 279 kts | 260° |
| 2026-04-15 13:03 | -9.57038 | -35.79639 | 4886 ft | 286 kts | 260° |
| 2026-04-15 13:03 | -9.57347 | -35.81596 | 5718 ft | 288 kts | 259° |
| 2026-04-15 13:03 | -9.57684 | -35.83585 | 6550 ft | 291 kts | 258° |
| 2026-04-15 13:03 | -9.58039 | -35.85557 | 7346 ft | 295 kts | 258° |
| 2026-04-15 13:04 | -9.58412 | -35.87577 | 8194 ft | 297 kts | 258° |
| 2026-04-15 13:04 | -9.58795 | -35.89621 | 8994 ft | 300 kts | 258° |
| 2026-04-15 13:04 | -9.59177 | -35.91643 | 9764 ft | 302 kts | 259° |
| 2026-04-15 13:04 | -9.59566 | -35.93712 | 10455 ft | 307 kts | 259° |
| 2026-04-15 13:05 | -9.59979 | -35.95907 | 10841 ft | 323 kts | 259° |
| 2026-04-15 13:05 | -9.60400 | -35.98142 | 11146 ft | 340 kts | 259° |
| 2026-04-15 13:05 | -9.60851 | -36.00535 | 11432 ft | 357 kts | 259° |
| 2026-04-15 13:05 | -9.61287 | -36.02853 | 11752 ft | 370 kts | 259° |
| 2026-04-15 13:06 | -9.62127 | -36.07302 | 12822 ft | 376 kts | 259° |
| 2026-04-15 13:06 | -9.62619 | -36.09904 | 13474 ft | 378 kts | 259° |
| 2026-04-15 13:06 | -9.63106 | -36.12482 | 14048 ft | 381 kts | 259° |
| 2026-04-15 13:07 | -9.63602 | -36.15112 | 14600 ft | 384 kts | 259° |
| 2026-04-15 13:07 | -9.64244 | -36.17701 | 15136 ft | 387 kts | 254° |
| 2026-04-15 13:07 | -9.65151 | -36.20264 | 15670 ft | 390 kts | 248° |
| 2026-04-15 13:07 | -9.66268 | -36.22716 | 16176 ft | 393 kts | 245° |
| 2026-04-15 13:08 | -9.67461 | -36.25164 | 16665 ft | 395 kts | 244° |
| 2026-04-15 13:08 | -9.68694 | -36.27670 | 17138 ft | 398 kts | 244° |
| 2026-04-15 13:08 | -9.69923 | -36.30173 | 17609 ft | 400 kts | 244° |
| 2026-04-15 13:08 | -9.71160 | -36.32705 | 18098 ft | 402 kts | 244° |
| 2026-04-15 13:09 | -9.72368 | -36.35185 | 18576 ft | 404 kts | 245° |
| 2026-04-15 13:09 | -9.73600 | -36.37717 | 19058 ft | 406 kts | 245° |
| 2026-04-15 13:09 | -9.74854 | -36.40304 | 19541 ft | 408 kts | 245° |
| 2026-04-15 13:09 | -9.76102 | -36.42878 | 19999 ft | 410 kts | 245° |
| 2026-04-15 13:10 | -9.77355 | -36.45463 | 20473 ft | 411 kts | 244° |
| 2026-04-15 13:10 | -9.78614 | -36.48060 | 20949 ft | 412 kts | 245° |
| 2026-04-15 13:10 | -9.79866 | -36.50646 | 21420 ft | 413 kts | 245° |
| 2026-04-15 13:10 | -9.81140 | -36.53278 | 21851 ft | 415 kts | 245° |
| 2026-04-15 13:11 | -9.82413 | -36.55907 | 22263 ft | 417 kts | 245° |
| 2026-04-15 13:11 | -9.83691 | -36.58546 | 22726 ft | 418 kts | 245° |
| 2026-04-15 13:11 | -9.84958 | -36.61167 | 23145 ft | 419 kts | 245° |
| 2026-04-15 13:11 | -9.86239 | -36.63817 | 23521 ft | 421 kts | 245° |
| 2026-04-15 13:12 | -9.87532 | -36.66490 | 23900 ft | 423 kts | 245° |
| 2026-04-15 13:12 | -9.88831 | -36.69178 | 24289 ft | 425 kts | 245° |
| 2026-04-15 13:12 | -9.90161 | -36.71846 | 24664 ft | 427 kts | 242° |
| 2026-04-15 13:12 | -9.91791 | -36.74385 | 25025 ft | 430 kts | 235° |
| 2026-04-15 13:13 | -9.93719 | -36.76684 | 25361 ft | 434 kts | 228° |
| 2026-04-15 13:13 | -9.95957 | -36.78797 | 25719 ft | 438 kts | 223° |
| 2026-04-15 13:13 | -9.98262 | -36.80820 | 26066 ft | 440 kts | 223° |
| 2026-04-15 13:13 | -10.00556 | -36.82812 | 26401 ft | 442 kts | 223° |
| 2026-04-15 13:14 | -10.02875 | -36.84828 | 26737 ft | 444 kts | 223° |
| 2026-04-15 13:14 | -10.05223 | -36.86875 | 27059 ft | 446 kts | 223° |
| 2026-04-15 13:14 | -10.07556 | -36.88913 | 27385 ft | 448 kts | 223° |
| 2026-04-15 13:14 | -10.09934 | -36.90993 | 27701 ft | 450 kts | 223° |
| 2026-04-15 13:15 | -10.12100 | -36.92891 | 27993 ft | 451 kts | 223° |
| 2026-04-15 13:15 | -10.14560 | -36.95049 | 28345 ft | 452 kts | 224° |
| 2026-04-15 13:15 | -10.16942 | -36.97138 | 28802 ft | 450 kts | 224° |
| 2026-04-15 13:15 | -10.19281 | -36.99192 | 29269 ft | 447 kts | 224° |
| 2026-04-15 13:16 | -10.21650 | -37.01272 | 29762 ft | 445 kts | 224° |
| 2026-04-15 13:16 | -10.23967 | -37.03308 | 30272 ft | 441 kts | 224° |
| 2026-04-15 13:16 | -10.26245 | -37.05309 | 30764 ft | 438 kts | 224° |
| 2026-04-15 13:16 | -10.28558 | -37.07344 | 31264 ft | 434 kts | 224° |
| 2026-04-15 13:17 | -10.30819 | -37.09332 | 31737 ft | 432 kts | 224° |
| 2026-04-15 13:17 | -10.33066 | -37.11309 | 32203 ft | 429 kts | 224° |
| 2026-04-15 13:17 | -10.35320 | -37.13291 | 32654 ft | 426 kts | 223° |
| 2026-04-15 13:17 | -10.37523 | -37.15229 | 33165 ft | 424 kts | 224° |
| 2026-04-15 13:18 | -10.39750 | -37.17185 | 33610 ft | 423 kts | 224° |
| 2026-04-15 13:18 | -10.41963 | -37.19132 | 34048 ft | 422 kts | 224° |
| 2026-04-15 13:18 | -10.44156 | -37.21061 | 34466 ft | 421 kts | 224° |
| 2026-04-15 13:18 | -10.46278 | -37.22929 | 34864 ft | 420 kts | 224° |
| 2026-04-15 13:19 | -10.48646 | -37.25014 | 35279 ft | 419 kts | 224° |
| 2026-04-15 13:20 | -10.50845 | -37.26950 | 35684 ft | 417 kts | 224° |
| 2026-04-15 13:20 | -10.53011 | -37.28857 | 36024 ft | 417 kts | 225° |
| 2026-04-15 13:20 | -10.55168 | -37.30759 | 36300 ft | 417 kts | 225° |
| 2026-04-15 13:20 | -10.57339 | -37.32673 | 36543 ft | 418 kts | 225° |
| 2026-04-15 13:21 | -10.59564 | -37.34635 | 36749 ft | 420 kts | 225° |
| 2026-04-15 13:21 | -10.61767 | -37.36578 | 36957 ft | 421 kts | 225° |
| 2026-04-15 13:21 | -10.63961 | -37.38513 | 37167 ft | 422 kts | 225° |
| 2026-04-15 13:21 | -10.66211 | -37.40498 | 37344 ft | 423 kts | 225° |
| 2026-04-15 13:22 | -10.68450 | -37.42472 | 37530 ft | 424 kts | 225° |
| 2026-04-15 13:22 | -10.70657 | -37.44419 | 37692 ft | 425 kts | 225° |
| 2026-04-15 13:22 | -10.72903 | -37.46402 | 37848 ft | 426 kts | 225° |
| 2026-04-15 13:22 | -10.75164 | -37.48397 | 37974 ft | 427 kts | 225° |
| 2026-04-15 13:23 | -10.79675 | -37.52383 | 37976 ft | 427 kts | 225° |
| 2026-04-15 13:23 | -10.84152 | -37.56335 | 37982 ft | 427 kts | 225° |
| 2026-04-15 13:24 | -10.88648 | -37.60309 | 37988 ft | 428 kts | 225° |
| 2026-04-15 13:24 | -10.93170 | -37.64307 | 37993 ft | 428 kts | 225° |
| 2026-04-15 13:25 | -10.97653 | -37.68272 | 37997 ft | 428 kts | 225° |
| 2026-04-15 13:25 | -11.02117 | -37.72223 | 37993 ft | 428 kts | 225° |
| 2026-04-15 13:26 | -11.06576 | -37.76170 | 37990 ft | 428 kts | 225° |
| 2026-04-15 13:26 | -11.11059 | -37.80138 | 37993 ft | 428 kts | 225° |
| 2026-04-15 13:27 | -11.15482 | -37.84056 | 37997 ft | 427 kts | 225° |
| 2026-04-15 13:27 | -11.19959 | -37.88026 | 38002 ft | 428 kts | 225° |
| 2026-04-15 13:28 | -11.24419 | -37.91984 | 38001 ft | 429 kts | 225° |
| 2026-04-15 13:28 | -11.28915 | -37.95969 | 38005 ft | 429 kts | 225° |
| 2026-04-15 13:29 | -11.33405 | -37.99954 | 38004 ft | 429 kts | 225° |
| 2026-04-15 13:29 | -11.37882 | -38.03929 | 38001 ft | 429 kts | 224° |
| 2026-04-15 13:30 | -11.42370 | -38.07913 | 37999 ft | 430 kts | 224° |
| 2026-04-15 13:30 | -11.46835 | -38.11881 | 37997 ft | 428 kts | 224° |
| 2026-04-15 13:31 | -11.51316 | -38.15864 | 37996 ft | 429 kts | 224° |
| 2026-04-15 13:31 | -11.55796 | -38.19848 | 37996 ft | 430 kts | 224° |
| 2026-04-15 13:32 | -11.60315 | -38.23870 | 37996 ft | 430 kts | 224° |
| 2026-04-15 13:32 | -11.64788 | -38.27850 | 37998 ft | 430 kts | 224° |
| 2026-04-15 13:33 | -11.69292 | -38.31861 | 37998 ft | 430 kts | 224° |
| 2026-04-15 13:33 | -11.73794 | -38.35873 | 37999 ft | 431 kts | 224° |
| 2026-04-15 13:34 | -11.78280 | -38.39871 | 38000 ft | 431 kts | 223° |
| 2026-04-15 13:34 | -11.82801 | -38.43901 | 38000 ft | 431 kts | 223° |
| 2026-04-15 13:35 | -11.87282 | -38.47900 | 38002 ft | 431 kts | 223° |
| 2026-04-15 13:35 | -11.91785 | -38.51917 | 38006 ft | 431 kts | 223° |
| 2026-04-15 13:36 | -11.96282 | -38.55931 | 38008 ft | 431 kts | 223° |
| 2026-04-15 13:36 | -12.00801 | -38.59970 | 38008 ft | 432 kts | 223° |
| 2026-04-15 13:37 | -12.05305 | -38.63996 | 38007 ft | 432 kts | 223° |
| 2026-04-15 13:37 | -12.09805 | -38.68019 | 38003 ft | 433 kts | 223° |
| 2026-04-15 13:38 | -12.14299 | -38.72041 | 38003 ft | 433 kts | 223° |
| 2026-04-15 13:38 | -12.18752 | -38.76022 | 37999 ft | 432 kts | 223° |
| 2026-04-15 13:39 | -12.23265 | -38.80065 | 37997 ft | 432 kts | 223° |
| 2026-04-15 13:39 | -12.27713 | -38.84050 | 37994 ft | 431 kts | 223° |
| 2026-04-15 13:40 | -12.32221 | -38.88088 | 37994 ft | 432 kts | 223° |
| 2026-04-15 13:40 | -12.36681 | -38.92091 | 37993 ft | 432 kts | 223° |
| 2026-04-15 13:41 | -12.41180 | -38.96127 | 37992 ft | 431 kts | 223° |
| 2026-04-15 13:41 | -12.45640 | -39.00131 | 37995 ft | 431 kts | 223° |
| 2026-04-15 13:42 | -12.50160 | -39.04189 | 37994 ft | 431 kts | 223° |
| 2026-04-15 13:42 | -12.54639 | -39.08212 | 37999 ft | 431 kts | 223° |
| 2026-04-15 13:43 | -12.59107 | -39.12226 | 38002 ft | 430 kts | 223° |
| 2026-04-15 13:43 | -12.63562 | -39.16233 | 38002 ft | 429 kts | 223° |
| 2026-04-15 13:44 | -12.68053 | -39.20274 | 38002 ft | 430 kts | 223° |
| 2026-04-15 13:44 | -12.72517 | -39.24292 | 37999 ft | 429 kts | 223° |
| 2026-04-15 13:45 | -12.76963 | -39.28296 | 38004 ft | 429 kts | 223° |
| 2026-04-15 13:47 | -12.94843 | -39.44418 | 38025 ft | 428 kts | 223° |
| 2026-04-15 13:47 | -12.99325 | -39.48466 | 38024 ft | 429 kts | 223° |
| 2026-04-15 13:48 | -13.03774 | -39.52484 | 38032 ft | 429 kts | 223° |
| 2026-04-15 13:48 | -13.08259 | -39.56540 | 38033 ft | 429 kts | 223° |
| 2026-04-15 13:49 | -13.12709 | -39.60566 | 38038 ft | 428 kts | 223° |
| 2026-04-15 13:49 | -13.17162 | -39.64596 | 38041 ft | 429 kts | 223° |
| 2026-04-15 13:50 | -13.21650 | -39.68661 | 38050 ft | 429 kts | 223° |
| 2026-04-15 13:50 | -13.26075 | -39.72669 | 38052 ft | 428 kts | 223° |
| 2026-04-15 13:51 | -13.30640 | -39.76543 | 38054 ft | 428 kts | 219° |
| 2026-04-15 13:51 | -13.35375 | -39.80264 | 38059 ft | 427 kts | 219° |
| 2026-04-15 13:52 | -13.40062 | -39.83944 | 38069 ft | 427 kts | 219° |
| 2026-04-15 13:52 | -13.44812 | -39.87679 | 38072 ft | 427 kts | 219° |
| 2026-04-15 13:53 | -13.49498 | -39.91369 | 38084 ft | 426 kts | 219° |
| 2026-04-15 13:53 | -13.54228 | -39.95097 | 38087 ft | 426 kts | 219° |
| 2026-04-15 13:54 | -13.58915 | -39.98791 | 38088 ft | 425 kts | 218° |
| 2026-04-15 13:54 | -13.63605 | -40.02502 | 38086 ft | 425 kts | 218° |
| 2026-04-15 13:55 | -13.68300 | -40.06225 | 38084 ft | 424 kts | 218° |
| 2026-04-15 13:55 | -13.72966 | -40.09926 | 38078 ft | 423 kts | 218° |
| 2026-04-15 13:56 | -13.77637 | -40.13634 | 38067 ft | 423 kts | 218° |
| 2026-04-15 13:56 | -13.82268 | -40.17315 | 38061 ft | 422 kts | 218° |
| 2026-04-15 13:57 | -13.86913 | -40.21008 | 38060 ft | 421 kts | 218° |
| 2026-04-15 13:57 | -13.91549 | -40.24695 | 38047 ft | 420 kts | 218° |
| 2026-04-15 13:58 | -13.96176 | -40.28377 | 38045 ft | 419 kts | 218° |
| 2026-04-15 13:58 | -14.00799 | -40.32058 | 38045 ft | 418 kts | 218° |
| 2026-04-15 13:59 | -14.05382 | -40.35712 | 38044 ft | 419 kts | 218° |
| 2026-04-15 13:59 | -14.10004 | -40.39395 | 38046 ft | 419 kts | 218° |
| 2026-04-15 14:00 | -14.14581 | -40.43037 | 38050 ft | 418 kts | 218° |
| 2026-04-15 14:00 | -14.19197 | -40.46717 | 38048 ft | 418 kts | 218° |
| 2026-04-15 14:01 | -14.26113 | -40.52240 | 38053 ft | 417 kts | 218° |
| 2026-04-15 14:02 | -14.30704 | -40.55906 | 38056 ft | 416 kts | 218° |
| 2026-04-15 14:02 | -14.35284 | -40.59569 | 38062 ft | 416 kts | 217° |
| 2026-04-15 14:03 | -14.39909 | -40.63267 | 38061 ft | 415 kts | 217° |
| 2026-04-15 14:03 | -14.44496 | -40.66938 | 38061 ft | 416 kts | 217° |
| 2026-04-15 14:04 | -14.49147 | -40.70660 | 38058 ft | 416 kts | 217° |
| 2026-04-15 14:04 | -14.53736 | -40.74336 | 38061 ft | 415 kts | 217° |
| 2026-04-15 14:05 | -14.58339 | -40.78025 | 38068 ft | 415 kts | 217° |
| 2026-04-15 14:05 | -14.62898 | -40.81683 | 38077 ft | 415 kts | 217° |
| 2026-04-15 14:06 | -14.67491 | -40.85366 | 38086 ft | 415 kts | 217° |
| 2026-04-15 14:06 | -14.72076 | -40.89048 | 38096 ft | 415 kts | 217° |
| 2026-04-15 14:07 | -14.76667 | -40.92736 | 38106 ft | 414 kts | 217° |
| 2026-04-15 14:07 | -14.81226 | -40.96402 | 38115 ft | 414 kts | 217° |
| 2026-04-15 14:08 | -14.85766 | -41.00051 | 38118 ft | 414 kts | 217° |
| 2026-04-15 14:08 | -14.90377 | -41.03759 | 38120 ft | 413 kts | 217° |
| 2026-04-15 14:09 | -14.94908 | -41.07406 | 38126 ft | 413 kts | 217° |
| 2026-04-15 14:09 | -14.99488 | -41.11093 | 38128 ft | 414 kts | 217° |
| 2026-04-15 14:10 | -15.04065 | -41.14784 | 38133 ft | 413 kts | 217° |
| 2026-04-15 14:10 | -15.08650 | -41.18482 | 38128 ft | 414 kts | 217° |
| 2026-04-15 14:11 | -15.13226 | -41.22175 | 38128 ft | 415 kts | 217° |
| 2026-04-15 14:11 | -15.17759 | -41.25835 | 38126 ft | 415 kts | 217° |
| 2026-04-15 14:12 | -15.22325 | -41.29522 | 38121 ft | 415 kts | 217° |
| 2026-04-15 14:12 | -15.26889 | -41.33211 | 38123 ft | 415 kts | 217° |
| 2026-04-15 14:13 | -15.31467 | -41.36911 | 38120 ft | 414 kts | 217° |
| 2026-04-15 14:13 | -15.36038 | -41.40610 | 38116 ft | 415 kts | 217° |
| 2026-04-15 14:14 | -15.40641 | -41.44336 | 38111 ft | 415 kts | 217° |
| 2026-04-15 14:14 | -15.45216 | -41.48042 | 38103 ft | 415 kts | 217° |
| 2026-04-15 14:15 | -15.49778 | -41.51740 | 38105 ft | 416 kts | 217° |
| 2026-04-15 14:15 | -15.54356 | -41.55454 | 38106 ft | 416 kts | 217° |
| 2026-04-15 14:16 | -15.58941 | -41.59174 | 38108 ft | 416 kts | 217° |
| 2026-04-15 14:16 | -15.63549 | -41.62914 | 38111 ft | 416 kts | 217° |
| 2026-04-15 14:17 | -15.68156 | -41.66658 | 38121 ft | 417 kts | 217° |
| 2026-04-15 14:17 | -15.72778 | -41.70414 | 38127 ft | 417 kts | 217° |
| 2026-04-15 14:18 | -15.77388 | -41.74164 | 38132 ft | 417 kts | 217° |
| 2026-04-15 14:18 | -15.82006 | -41.77922 | 38137 ft | 417 kts | 217° |
| 2026-04-15 14:19 | -15.86598 | -41.81663 | 38138 ft | 417 kts | 217° |
| 2026-04-15 14:19 | -15.91186 | -41.85402 | 38141 ft | 417 kts | 217° |
| 2026-04-15 14:20 | -15.95779 | -41.89146 | 38144 ft | 418 kts | 217° |
| 2026-04-15 14:20 | -16.00402 | -41.92917 | 38147 ft | 417 kts | 217° |
| 2026-04-15 14:21 | -16.04996 | -41.96667 | 38150 ft | 418 kts | 217° |
| 2026-04-15 14:21 | -16.09590 | -42.00418 | 38148 ft | 418 kts | 217° |
| 2026-04-15 14:22 | -16.14211 | -42.04195 | 38137 ft | 419 kts | 217° |
| 2026-04-15 14:22 | -16.18788 | -42.07939 | 38134 ft | 419 kts | 217° |
| 2026-04-15 14:23 | -16.23406 | -42.11719 | 38119 ft | 419 kts | 217° |
| 2026-04-15 14:23 | -16.28006 | -42.15485 | 38119 ft | 419 kts | 217° |
| 2026-04-15 14:24 | -16.32614 | -42.19260 | 38115 ft | 419 kts | 217° |
| 2026-04-15 14:24 | -16.37214 | -42.23031 | 38102 ft | 418 kts | 217° |
| 2026-04-15 14:25 | -16.41809 | -42.26802 | 38099 ft | 418 kts | 217° |
| 2026-04-15 14:25 | -16.46431 | -42.30596 | 38099 ft | 418 kts | 217° |
| 2026-04-15 14:26 | -16.51001 | -42.34351 | 38104 ft | 419 kts | 217° |
| 2026-04-15 14:26 | -16.55594 | -42.38128 | 38103 ft | 419 kts | 217° |
| 2026-04-15 14:27 | -16.60222 | -42.41939 | 38106 ft | 419 kts | 217° |
| 2026-04-15 14:27 | -16.64803 | -42.45723 | 38106 ft | 419 kts | 217° |
| 2026-04-15 14:28 | -16.69391 | -42.49498 | 38102 ft | 419 kts | 217° |
| 2026-04-15 14:28 | -16.73988 | -42.53281 | 38105 ft | 419 kts | 217° |
| 2026-04-15 14:29 | -16.78576 | -42.57062 | 38111 ft | 419 kts | 217° |
| 2026-04-15 14:29 | -16.83207 | -42.60883 | 38100 ft | 420 kts | 217° |
| 2026-04-15 14:30 | -16.87825 | -42.64696 | 38099 ft | 421 kts | 217° |
| 2026-04-15 14:30 | -16.92443 | -42.68510 | 38104 ft | 421 kts | 217° |
| 2026-04-15 14:31 | -16.97047 | -42.72318 | 38108 ft | 421 kts | 217° |
| 2026-04-15 14:31 | -17.01668 | -42.76138 | 38106 ft | 422 kts | 217° |
| 2026-04-15 14:32 | -17.06279 | -42.79955 | 38114 ft | 422 kts | 217° |
| 2026-04-15 14:32 | -17.10951 | -42.83821 | 38108 ft | 422 kts | 217° |
| 2026-04-15 14:33 | -17.15593 | -42.87667 | 38112 ft | 422 kts | 217° |
| 2026-04-15 14:33 | -17.20205 | -42.91491 | 38112 ft | 422 kts | 217° |
| 2026-04-15 14:34 | -17.24851 | -42.95348 | 38116 ft | 422 kts | 217° |
| 2026-04-15 14:34 | -17.29474 | -42.99186 | 38118 ft | 423 kts | 217° |
| 2026-04-15 14:35 | -17.34102 | -43.03030 | 38115 ft | 422 kts | 217° |
| 2026-04-15 14:35 | -17.38722 | -43.06874 | 38121 ft | 422 kts | 217° |
| 2026-04-15 14:36 | -17.43301 | -43.10686 | 38133 ft | 422 kts | 217° |
| 2026-04-15 14:36 | -17.47934 | -43.14545 | 38137 ft | 423 kts | 217° |
| 2026-04-15 14:37 | -17.52567 | -43.18409 | 38144 ft | 423 kts | 217° |
| 2026-04-15 14:37 | -17.57195 | -43.22264 | 38147 ft | 422 kts | 217° |
| 2026-04-15 14:38 | -17.61839 | -43.26136 | 38148 ft | 423 kts | 217° |
| 2026-04-15 14:38 | -17.66470 | -43.29998 | 38154 ft | 423 kts | 217° |
| 2026-04-15 14:39 | -17.71108 | -43.33872 | 38149 ft | 424 kts | 217° |
| 2026-04-15 14:39 | -17.75765 | -43.37765 | 38157 ft | 423 kts | 217° |
| 2026-04-15 14:40 | -17.80391 | -43.41637 | 38155 ft | 423 kts | 217° |
| 2026-04-15 14:40 | -17.85004 | -43.45497 | 38152 ft | 424 kts | 217° |
| 2026-04-15 14:41 | -17.89643 | -43.49383 | 38156 ft | 424 kts | 217° |
| 2026-04-15 14:41 | -17.94251 | -43.53247 | 38159 ft | 424 kts | 217° |
| 2026-04-15 14:42 | -17.98839 | -43.57097 | 38163 ft | 425 kts | 217° |
| 2026-04-15 14:42 | -18.03432 | -43.60956 | 38162 ft | 425 kts | 217° |
| 2026-04-15 14:43 | -18.08032 | -43.64820 | 38172 ft | 424 kts | 217° |
| 2026-04-15 14:43 | -18.12603 | -43.68665 | 38179 ft | 424 kts | 217° |
| 2026-04-15 14:44 | -18.17129 | -43.72472 | 38179 ft | 424 kts | 217° |
| 2026-04-15 14:44 | -18.21715 | -43.76333 | 38190 ft | 425 kts | 217° |
| 2026-04-15 14:45 | -18.26316 | -43.80211 | 38187 ft | 425 kts | 217° |
| 2026-04-15 14:45 | -18.30889 | -43.84071 | 38182 ft | 425 kts | 217° |
| 2026-04-15 14:46 | -18.35505 | -43.87968 | 38175 ft | 424 kts | 217° |
| 2026-04-15 14:46 | -18.40112 | -43.91851 | 38167 ft | 425 kts | 217° |
| 2026-04-15 14:47 | -18.44690 | -43.95714 | 38168 ft | 424 kts | 217° |
| 2026-04-15 14:47 | -18.49285 | -43.99596 | 38166 ft | 425 kts | 217° |
| 2026-04-15 14:48 | -18.53900 | -44.03496 | 38156 ft | 425 kts | 217° |
| 2026-04-15 14:48 | -18.58496 | -44.07386 | 38150 ft | 425 kts | 217° |
| 2026-04-15 14:49 | -18.63100 | -44.11283 | 38132 ft | 426 kts | 217° |
| 2026-04-15 14:49 | -18.67744 | -44.15219 | 38124 ft | 426 kts | 217° |
| 2026-04-15 14:50 | -18.72355 | -44.19130 | 38116 ft | 426 kts | 217° |
| 2026-04-15 14:50 | -18.76962 | -44.23043 | 38112 ft | 427 kts | 217° |
| 2026-04-15 14:51 | -18.81609 | -44.26989 | 38110 ft | 429 kts | 217° |
| 2026-04-15 14:51 | -18.86249 | -44.30939 | 38112 ft | 428 kts | 217° |
| 2026-04-15 14:52 | -18.90893 | -44.34895 | 38118 ft | 429 kts | 217° |
| 2026-04-15 14:52 | -18.95521 | -44.38843 | 38121 ft | 430 kts | 217° |
| 2026-04-15 14:53 | -19.00152 | -44.42795 | 38125 ft | 429 kts | 217° |
| 2026-04-15 14:53 | -19.04808 | -44.46764 | 38132 ft | 430 kts | 217° |
| 2026-04-15 14:54 | -19.09435 | -44.50712 | 38134 ft | 430 kts | 217° |
| 2026-04-15 14:54 | -19.14065 | -44.54668 | 38133 ft | 431 kts | 216° |
| 2026-04-15 14:55 | -19.18725 | -44.58654 | 38133 ft | 432 kts | 216° |
| 2026-04-15 14:55 | -19.23458 | -44.62705 | 38131 ft | 432 kts | 217° |
| 2026-04-15 14:56 | -19.28155 | -44.66724 | 38135 ft | 433 kts | 217° |
| 2026-04-15 14:56 | -19.32866 | -44.70757 | 38134 ft | 432 kts | 217° |
| 2026-04-15 14:57 | -19.37578 | -44.74793 | 38140 ft | 433 kts | 217° |
| 2026-04-15 14:57 | -19.42266 | -44.78814 | 38139 ft | 434 kts | 217° |
| 2026-04-15 14:58 | -19.46981 | -44.82866 | 38144 ft | 435 kts | 217° |
| 2026-04-15 14:58 | -19.51713 | -44.86933 | 38139 ft | 434 kts | 217° |
| 2026-04-15 14:59 | -19.56431 | -44.90989 | 38134 ft | 436 kts | 217° |
| 2026-04-15 14:59 | -19.61148 | -44.95060 | 38134 ft | 436 kts | 217° |
| 2026-04-15 15:00 | -19.65856 | -44.99125 | 38128 ft | 436 kts | 217° |
| 2026-04-15 15:00 | -19.70586 | -45.03213 | 38131 ft | 436 kts | 217° |
| 2026-04-15 15:01 | -19.75323 | -45.07314 | 38129 ft | 437 kts | 217° |
| 2026-04-15 15:01 | -19.80068 | -45.11424 | 38133 ft | 437 kts | 217° |
| 2026-04-15 15:02 | -19.84814 | -45.15537 | 38138 ft | 438 kts | 217° |
| 2026-04-15 15:02 | -19.89531 | -45.19623 | 38149 ft | 438 kts | 217° |
| 2026-04-15 15:03 | -19.94284 | -45.23743 | 38160 ft | 438 kts | 217° |
| 2026-04-15 15:03 | -19.99018 | -45.27859 | 38164 ft | 437 kts | 217° |
| 2026-04-15 15:04 | -20.03752 | -45.31974 | 38164 ft | 438 kts | 217° |
| 2026-04-15 15:04 | -20.08443 | -45.36058 | 38166 ft | 438 kts | 217° |
| 2026-04-15 15:05 | -20.13222 | -45.40217 | 38173 ft | 439 kts | 217° |
| 2026-04-15 15:05 | -20.17994 | -45.44371 | 38170 ft | 438 kts | 217° |
| 2026-04-15 15:06 | -20.24941 | -45.50429 | 38166 ft | 439 kts | 217° |
| 2026-04-15 15:06 | -20.29695 | -45.54583 | 38166 ft | 440 kts | 217° |
| 2026-04-15 15:07 | -20.34400 | -45.58691 | 38150 ft | 441 kts | 217° |
| 2026-04-15 15:07 | -20.39132 | -45.62827 | 38153 ft | 442 kts | 217° |
| 2026-04-15 15:08 | -20.43869 | -45.66972 | 38153 ft | 442 kts | 217° |
| 2026-04-15 15:08 | -20.48542 | -45.71067 | 38153 ft | 441 kts | 218° |
| 2026-04-15 15:09 | -20.53219 | -45.75169 | 38149 ft | 441 kts | 217° |
| 2026-04-15 15:09 | -20.57959 | -45.79329 | 38156 ft | 442 kts | 217° |
| 2026-04-15 15:10 | -20.62683 | -45.83482 | 38155 ft | 442 kts | 217° |
| 2026-04-15 15:10 | -20.67425 | -45.87651 | 38158 ft | 443 kts | 217° |
| 2026-04-15 15:11 | -20.72153 | -45.91813 | 38156 ft | 443 kts | 217° |
| 2026-04-15 15:11 | -20.76851 | -45.95943 | 38157 ft | 443 kts | 217° |
| 2026-04-15 15:12 | -20.81620 | -46.00142 | 38154 ft | 443 kts | 217° |
| 2026-04-15 15:12 | -20.86384 | -46.04345 | 38155 ft | 443 kts | 217° |
| 2026-04-15 15:13 | -20.91133 | -46.08498 | 38160 ft | 443 kts | 216° |
| 2026-04-15 15:13 | -20.96153 | -46.12215 | 38162 ft | 441 kts | 209° |
| 2026-04-15 15:14 | -21.01542 | -46.15298 | 38168 ft | 439 kts | 202° |
| 2026-04-15 15:14 | -21.07243 | -46.17711 | 38171 ft | 437 kts | 197° |
| 2026-04-15 15:15 | -21.12950 | -46.19732 | 38173 ft | 437 kts | 196° |
| 2026-04-15 15:15 | -21.18692 | -46.21733 | 38173 ft | 437 kts | 196° |
| 2026-04-15 15:16 | -21.24492 | -46.23696 | 38174 ft | 438 kts | 196° |
| 2026-04-15 15:16 | -21.30147 | -46.25613 | 38177 ft | 437 kts | 196° |
| 2026-04-15 15:17 | -21.35917 | -46.27576 | 38180 ft | 437 kts | 196° |
| 2026-04-15 15:17 | -21.41697 | -46.29545 | 38181 ft | 438 kts | 196° |
| 2026-04-15 15:18 | -21.47515 | -46.31532 | 38185 ft | 436 kts | 196° |
| 2026-04-15 15:18 | -21.53276 | -46.33496 | 38185 ft | 437 kts | 196° |
| 2026-04-15 15:19 | -21.59067 | -46.35478 | 38189 ft | 437 kts | 196° |
| 2026-04-15 15:19 | -21.64884 | -46.37467 | 38197 ft | 438 kts | 196° |
| 2026-04-15 15:20 | -21.70638 | -46.39531 | 38205 ft | 437 kts | 197° |
| 2026-04-15 15:20 | -21.76354 | -46.41641 | 38124 ft | 435 kts | 197° |
| 2026-04-15 15:21 | -21.79208 | -46.42691 | 37465 ft | 429 kts | 198° |
| 2026-04-15 15:21 | -21.81908 | -46.43678 | 36035 ft | 434 kts | 198° |
| 2026-04-15 15:21 | -21.84824 | -46.44739 | 34170 ft | 441 kts | 200° |
| 2026-04-15 15:21 | -21.87729 | -46.45798 | 32282 ft | 447 kts | 201° |
| 2026-04-15 15:22 | -21.90630 | -46.46874 | 30319 ft | 454 kts | 201° |
| 2026-04-15 15:22 | -21.93571 | -46.47968 | 28199 ft | 462 kts | 200° |
| 2026-04-15 15:22 | -21.96625 | -46.49103 | 26120 ft | 465 kts | 200° |
| 2026-04-15 15:22 | -21.99604 | -46.50205 | 24832 ft | 450 kts | 200° |
| 2026-04-15 15:23 | -22.02501 | -46.51271 | 23539 ft | 438 kts | 199° |
| 2026-04-15 15:23 | -22.05346 | -46.52320 | 22298 ft | 427 kts | 199° |
| 2026-04-15 15:23 | -22.08073 | -46.53325 | 21768 ft | 416 kts | 199° |
| 2026-04-15 15:23 | -22.10805 | -46.54331 | 21292 ft | 413 kts | 199° |
| 2026-04-15 15:24 | -22.13534 | -46.55336 | 20762 ft | 410 kts | 199° |
| 2026-04-15 15:24 | -22.16185 | -46.56315 | 20223 ft | 407 kts | 199° |
| 2026-04-15 15:24 | -22.18754 | -46.57264 | 19691 ft | 406 kts | 199° |
| 2026-04-15 15:24 | -22.21437 | -46.58256 | 19133 ft | 405 kts | 199° |
| 2026-04-15 15:25 | -22.24034 | -46.59215 | 18590 ft | 405 kts | 199° |
| 2026-04-15 15:25 | -22.26698 | -46.60202 | 18023 ft | 404 kts | 199° |
| 2026-04-15 15:25 | -22.29367 | -46.61191 | 17459 ft | 404 kts | 199° |
| 2026-04-15 15:25 | -22.31988 | -46.62159 | 16915 ft | 403 kts | 199° |
| 2026-04-15 15:26 | -22.34630 | -46.63139 | 16364 ft | 403 kts | 199° |
| 2026-04-15 15:26 | -22.37258 | -46.64114 | 15805 ft | 402 kts | 199° |
| 2026-04-15 15:26 | -22.39892 | -46.65182 | 15231 ft | 399 kts | 206° |
| 2026-04-15 15:26 | -22.42216 | -46.66802 | 14683 ft | 396 kts | 220° |
| 2026-04-15 15:27 | -22.44099 | -46.68949 | 14135 ft | 394 kts | 231° |
| 2026-04-15 15:27 | -22.45711 | -46.71219 | 13607 ft | 391 kts | 233° |
| 2026-04-15 15:27 | -22.47365 | -46.73612 | 13046 ft | 389 kts | 233° |
| 2026-04-15 15:27 | -22.48977 | -46.75936 | 12496 ft | 386 kts | 233° |
| 2026-04-15 15:28 | -22.50399 | -46.77969 | 12005 ft | 384 kts | 232° |
| 2026-04-15 15:28 | -22.52108 | -46.80399 | 11417 ft | 382 kts | 232° |
| 2026-04-15 15:28 | -22.53716 | -46.82679 | 11023 ft | 374 kts | 232° |
| 2026-04-15 15:28 | -22.55265 | -46.84869 | 10761 ft | 364 kts | 232° |
| 2026-04-15 15:29 | -22.56791 | -46.87028 | 10592 ft | 352 kts | 232° |
| 2026-04-15 15:29 | -22.58254 | -46.89099 | 10424 ft | 341 kts | 232° |
| 2026-04-15 15:29 | -22.59673 | -46.91114 | 10260 ft | 330 kts | 232° |
| 2026-04-15 15:29 | -22.61045 | -46.93064 | 10026 ft | 323 kts | 232° |
| 2026-04-15 15:30 | -22.62394 | -46.94985 | 9761 ft | 318 kts | 232° |
| 2026-04-15 15:30 | -22.63711 | -46.96856 | 9487 ft | 313 kts | 232° |
| 2026-04-15 15:30 | -22.65019 | -46.98716 | 9182 ft | 304 kts | 232° |
| 2026-04-15 15:30 | -22.66273 | -47.00498 | 9013 ft | 293 kts | 232° |
| 2026-04-15 15:31 | -22.67494 | -47.02233 | 8984 ft | 293 kts | 232° |
| 2026-04-15 15:31 | -22.68730 | -47.03990 | 8950 ft | 294 kts | 232° |
| 2026-04-15 15:31 | -22.69980 | -47.05766 | 8626 ft | 297 kts | 232° |
| 2026-04-15 15:31 | -22.71236 | -47.07553 | 8246 ft | 297 kts | 232° |
| 2026-04-15 15:32 | -22.72460 | -47.09295 | 7882 ft | 297 kts | 232° |
| 2026-04-15 15:32 | -22.73712 | -47.11079 | 7510 ft | 298 kts | 232° |
| 2026-04-15 15:32 | -22.74960 | -47.12858 | 7237 ft | 294 kts | 232° |
| 2026-04-15 15:32 | -22.76187 | -47.14610 | 6853 ft | 296 kts | 233° |
| 2026-04-15 15:33 | -22.77412 | -47.16357 | 6594 ft | 292 kts | 233° |
| 2026-04-15 15:33 | -22.78644 | -47.18116 | 6203 ft | 294 kts | 232° |
| 2026-04-15 15:33 | -22.79864 | -47.19859 | 5998 ft | 288 kts | 232° |
| 2026-04-15 15:33 | -22.81047 | -47.21522 | 5992 ft | 274 kts | 229° |
| 2026-04-15 15:34 | -22.82384 | -47.22960 | 5865 ft | 266 kts | 219° |
| 2026-04-15 15:34 | -22.83809 | -47.24186 | 5521 ft | 265 kts | 217° |
| 2026-04-15 15:34 | -22.85262 | -47.25373 | 5194 ft | 249 kts | 216° |
| 2026-04-15 15:34 | -22.86593 | -47.26462 | 4915 ft | 239 kts | 216° |
| 2026-04-15 15:35 | -22.87911 | -47.27475 | 4709 ft | 223 kts | 206° |
| 2026-04-15 15:35 | -22.89363 | -47.27753 | 4483 ft | 206 kts | 169° |
| 2026-04-15 15:35 | -22.90593 | -47.27174 | 4404 ft | 181 kts | 141° |
| 2026-04-15 15:35 | -22.91461 | -47.26317 | 4404 ft | 158 kts | 130° |
| 2026-04-15 15:36 | -22.92150 | -47.25454 | 4415 ft | 144 kts | 127° |
| 2026-04-15 15:36 | -22.92748 | -47.24641 | 4299 ft | 137 kts | 126° |
| 2026-04-15 15:36 | -22.93333 | -47.23827 | 4113 ft | 135 kts | 124° |
| 2026-04-15 15:36 | -22.93899 | -47.23031 | 3946 ft | 135 kts | 124° |
| 2026-04-15 15:37 | -22.94466 | -47.22231 | 3784 ft | 134 kts | 126° |
| 2026-04-15 15:37 | -22.95030 | -47.21440 | 3620 ft | 134 kts | 127° |
| 2026-04-15 15:37 | -22.95606 | -47.20638 | 3443 ft | 134 kts | 124° |
| 2026-04-15 15:37 | -22.96171 | -47.19844 | 3275 ft | 134 kts | 124° |
| 2026-04-15 15:38 | -22.96740 | -47.19049 | 3111 ft | 133 kts | 126° |
| 2026-04-15 15:38 | -22.97300 | -47.18262 | 2951 ft | 133 kts | 128° |
| 2026-04-15 15:38 | -22.97863 | -47.17480 | 2778 ft | 133 kts | 124° |
| 2026-04-15 15:38 | -22.98420 | -47.16698 | 2627 ft | 132 kts | 128° |
| 2026-04-15 15:39 | -22.98983 | -47.15926 | 2452 ft | 132 kts | 129° |
| 2026-04-15 15:39 | -22.99549 | -47.15151 | 2310 ft | 132 kts | 123° |
| 2026-04-15 15:39 | -23.00089 | -47.14364 | 2184 ft | 125 kts | 126° |
| 2026-04-15 15:39 | -23.00545 | -47.13722 | 2179 ft | 83 kts | 124° |
| 2026-04-15 15:40 | -23.00743 | -47.13461 | 2179 ft | 14 kts | 167° |
| 2026-04-15 15:40 | -23.00756 | -47.13476 | 2179 ft | 0 kts | 309° |
| 2026-04-15 15:40 | -23.00756 | -47.13477 | 2179 ft | 2 kts | 308° |
| 2026-04-15 15:40 | -23.00747 | -47.13515 | 2179 ft | 13 kts | 278° |
| 2026-04-15 15:41 | -23.00741 | -47.13620 | 2179 ft | 13 kts | 272° |
| 2026-04-15 15:41 | -23.00733 | -47.13719 | 2179 ft | 12 kts | 277° |
| 2026-04-15 15:41 | -23.00722 | -47.13811 | 2179 ft | 12 kts | 277° |
| 2026-04-15 15:41 | -23.00711 | -47.13899 | 2179 ft | 11 kts | 280° |
| 2026-04-15 15:42 | -23.00690 | -47.13980 | 2178 ft | 10 kts | 289° |
| 2026-04-15 15:42 | -23.00656 | -47.14050 | 2178 ft | 11 kts | 307° |
| 2026-04-15 15:42 | -23.00579 | -47.14152 | 2178 ft | 23 kts | 309° |
| 2026-04-15 15:42 | -23.00474 | -47.14301 | 2178 ft | 24 kts | 308° |
| 2026-04-15 15:43 | -23.00376 | -47.14439 | 2178 ft | 22 kts | 308° |
| 2026-04-15 15:43 | -23.00286 | -47.14561 | 2178 ft | 19 kts | 306° |
| 2026-04-15 15:43 | -23.00280 | -47.14643 | 2178 ft | 10 kts | 226° |
| 2026-04-15 15:43 | -23.00334 | -47.14688 | 2178 ft | 9 kts | 215° |
| 2026-04-15 15:44 | -23.00389 | -47.14732 | 2178 ft | 9 kts | 219° |
| 2026-04-15 15:44 | -23.00438 | -47.14774 | 2178 ft | 8 kts | 217° |
| 2026-04-15 15:44 | -23.00462 | -47.14793 | 2178 ft | 0 kts | 216° |